Portada
METAR-TAF:

METAR-TAF

Aeroports :

Kokshetau, Kazakhstan

latitud: 53-19-48N, longitud: 069-35-48E, altitud: 270 m

Observació

L'informe es va fer fa 12 hores i 48 minuts, a les 12:30 UTC
Vent 4 kt del Nord
Temperatura 12°C
Humitat 40%
Pressió 1031 hPa
Visibilitat 10 km o més
sense núvols per sota de 1500 mi sense presència de cumulonimbus.

METAR: UACK 301230Z 35002MPS CAVOK 12/M01 Q1031 R20/090070 NOSIG RMK QFE749/0999

Hora: 07:18 (01:18 UTC)

Pronòstic

L'informe es va fer fa 14 hores i 11 minuts, a les 11:07 UTC
Pronòstic vàlid del 30 a les 12 UTC al 30 a les 21 UTC
Vent 4 kt amb direcció variable
Visibilitat 10 km o més
Núvols disperses a una alçada de 4000 ft

TAF: UACK 301107Z 3012/3021 VRB02MPS 9999 SCT040

Observacions i pronòstics meteorològics de més de 4000 aeroports (METAR i TAF).

Les estacions disponibles són els punts grocs i vermells al mapa.

Posi el ratolí al punt desitjat per veure el nom de l'estació.

Feu clic per veure les observacions i els pronòstics meteorològics.

Per canviar el mapa: feu clic els botons verds amb una creu de color negre per apropar; al botó verd amb un guió per allunyar la imatge; o en les fletxes verdes per a mapes adjacents.


METAR-TAF: